createdAt,value
2019-02-28T00:00:08.136Z,5.70
2019-02-28T00:02:39.827Z,5.70
2019-02-28T00:05:11.593Z,5.70
2019-02-28T00:07:44.427Z,5.60
2019-02-28T00:10:16.182Z,5.60
2019-02-28T00:12:48.567Z,5.60
2019-02-28T00:15:21.701Z,5.60
2019-02-28T00:17:53.563Z,5.60
2019-02-28T00:20:25.220Z,5.60
2019-02-28T00:22:56.865Z,5.50
2019-02-28T00:25:28.437Z,5.50
2019-02-28T00:27:59.960Z,5.50
2019-02-28T00:30:31.643Z,5.40
2019-02-28T00:33:03.554Z,5.40
2019-02-28T00:35:35.706Z,5.40
2019-02-28T00:38:07.282Z,5.40
2019-02-28T00:40:39.265Z,5.40
2019-02-28T00:43:10.910Z,5.40
2019-02-28T00:45:42.878Z,5.40
2019-02-28T00:48:14.531Z,5.40
2019-02-28T00:50:46.156Z,5.40
2019-02-28T00:53:17.748Z,5.40
2019-02-28T00:55:49.254Z,5.40
2019-02-28T00:58:20.510Z,5.40
2019-02-28T01:00:52.443Z,5.40
2019-02-28T01:03:26.836Z,5.50
2019-02-28T01:05:57.536Z,5.50
2019-02-28T01:08:29.002Z,5.50
2019-02-28T01:11:00.681Z,5.50
2019-02-28T01:13:32.450Z,5.40
2019-02-28T01:16:04.490Z,5.50
2019-02-28T01:18:36.306Z,5.50
2019-02-28T01:21:09.430Z,5.50
2019-02-28T01:23:40.983Z,5.50
2019-02-28T01:26:12.614Z,5.50
2019-02-28T01:28:44.072Z,5.50
2019-02-28T01:31:15.726Z,5.40
2019-02-28T01:33:48.050Z,5.40
2019-02-28T01:36:20.059Z,5.40
2019-02-28T01:38:51.682Z,5.50
2019-02-28T01:41:23.464Z,5.50
2019-02-28T01:43:55.030Z,5.50
2019-02-28T01:46:26.719Z,5.50
2019-02-28T01:48:58.543Z,5.50
2019-02-28T01:51:35.633Z,5.40
2019-02-28T01:54:03.703Z,5.50
2019-02-28T01:56:36.974Z,5.50
2019-02-28T01:59:08.432Z,5.50
2019-02-28T02:01:41.312Z,5.40
2019-02-28T02:04:13.225Z,5.40
2019-02-28T02:06:44.811Z,5.40
2019-02-28T02:09:16.846Z,5.40
2019-02-28T02:11:48.302Z,5.30
2019-02-28T02:14:19.955Z,5.40
2019-02-28T02:16:52.174Z,5.40
2019-02-28T02:19:23.711Z,5.30
2019-02-28T02:21:55.246Z,5.30
2019-02-28T02:24:27.877Z,5.30
2019-02-28T02:27:00.091Z,5.30
2019-02-28T02:29:32.367Z,5.20
2019-02-28T02:32:04.858Z,5.30
2019-02-28T02:34:36.806Z,5.20
2019-02-28T02:37:08.551Z,5.20
2019-02-28T02:39:40.127Z,5.20
2019-02-28T02:42:11.957Z,5.10
2019-02-28T02:44:45.809Z,5.10
2019-02-28T02:47:17.445Z,5.10
2019-02-28T02:49:56.127Z,5.10
2019-02-28T02:52:25.852Z,5.00
2019-02-28T02:54:55.465Z,5.00
2019-02-28T02:57:27.179Z,5.00
2019-02-28T02:59:58.813Z,4.90
2019-02-28T03:02:33.121Z,4.90
2019-02-28T03:05:03.697Z,4.90
2019-02-28T03:07:35.321Z,4.90
2019-02-28T03:10:06.935Z,4.90
2019-02-28T03:12:38.474Z,4.90
2019-02-28T03:15:11.306Z,4.90
2019-02-28T03:17:46.644Z,4.90
2019-02-28T03:20:16.124Z,4.90
2019-02-28T03:22:47.629Z,4.90
2019-02-28T03:25:19.240Z,4.90
2019-02-28T03:27:54.986Z,5.00
2019-02-28T03:30:31.850Z,5.00
2019-02-28T03:32:57.456Z,5.00
2019-02-28T03:35:40.006Z,5.10
2019-02-28T03:38:10.552Z,5.10
2019-02-28T03:40:40.240Z,5.10
2019-02-28T03:43:10.719Z,5.20
2019-02-28T03:45:42.469Z,5.20
2019-02-28T03:48:14.115Z,5.10
2019-02-28T03:50:45.870Z,5.10
2019-02-28T03:53:20.029Z,5.10
2019-02-28T03:55:50.771Z,5.20
2019-02-28T03:58:22.258Z,5.10
2019-02-28T04:00:53.845Z,5.10
2019-02-28T04:03:25.475Z,5.10
2019-02-28T04:06:03.354Z,5.10
2019-02-28T04:08:30.823Z,5.10
2019-02-28T04:11:02.697Z,5.10
2019-02-28T04:13:34.384Z,5.00
2019-02-28T04:16:08.932Z,5.00
2019-02-28T04:18:44.147Z,5.00
2019-02-28T04:21:12.632Z,5.10
2019-02-28T04:23:46.692Z,5.00
2019-02-28T04:26:18.281Z,5.10
2019-02-28T04:28:53.499Z,5.10
2019-02-28T04:31:23.393Z,5.10
2019-02-28T04:33:55.560Z,5.10
2019-02-28T04:36:27.565Z,5.10
2019-02-28T04:38:59.176Z,5.10
2019-02-28T04:41:32.826Z,5.10
2019-02-28T04:44:04.655Z,5.10
2019-02-28T04:46:36.417Z,5.10
2019-02-28T04:49:08.278Z,5.10
2019-02-28T04:51:40.149Z,5.10
2019-02-28T04:54:13.309Z,5.10
2019-02-28T04:56:45.578Z,5.10
2019-02-28T04:59:18.282Z,5.10
2019-02-28T05:01:50.190Z,5.10
2019-02-28T05:04:21.980Z,5.10
2019-02-28T05:06:55.158Z,5.10
2019-02-28T05:09:27.209Z,5.00
2019-02-28T05:11:58.845Z,5.10
2019-02-28T05:14:30.419Z,5.10
2019-02-28T05:17:01.980Z,5.10
2019-02-28T05:19:35.853Z,5.10
2019-02-28T05:22:06.875Z,5.10
2019-02-28T05:24:39.390Z,5.10
2019-02-28T05:27:12.205Z,5.10
2019-02-28T05:29:44.825Z,5.10
2019-02-28T05:32:16.902Z,5.10
2019-02-28T05:34:51.124Z,5.10
2019-02-28T05:37:22.024Z,5.20
2019-02-28T05:39:53.726Z,5.20
2019-02-28T05:42:25.387Z,5.20
2019-02-28T05:44:57.484Z,5.20
2019-02-28T05:47:29.400Z,5.30
2019-02-28T05:50:02.432Z,5.40
2019-02-28T05:52:34.611Z,5.40
2019-02-28T05:55:06.378Z,5.50
2019-02-28T05:57:39.440Z,5.60
2019-02-28T06:00:12.014Z,5.60
2019-02-28T06:02:44.369Z,5.70
2019-02-28T06:05:16.194Z,5.80
2019-02-28T06:07:47.835Z,5.90
2019-02-28T06:10:23.544Z,5.90
2019-02-28T06:12:52.920Z,5.90
2019-02-28T06:15:25.186Z,5.90
2019-02-28T06:17:56.980Z,6.00
2019-02-28T06:20:29.039Z,6.00
2019-02-28T06:23:00.838Z,6.10
2019-02-28T06:25:32.769Z,6.10
2019-02-28T06:28:07.016Z,6.30
2019-02-28T06:30:41.554Z,6.40
2019-02-28T06:33:12.604Z,6.50
2019-02-28T06:35:49.548Z,6.60
2019-02-28T06:38:20.510Z,6.70
2019-02-28T06:40:52.812Z,6.80
2019-02-28T06:43:30.007Z,6.90
2019-02-28T06:46:03.757Z,7.00
2019-02-28T06:48:35.426Z,7.00
2019-02-28T06:51:07.140Z,7.10
2019-02-28T06:53:40.926Z,7.10
2019-02-28T06:56:16.352Z,7.20
2019-02-28T06:58:48.264Z,7.30
2019-02-28T07:01:22.680Z,7.30
2019-02-28T07:03:53.849Z,7.30
2019-02-28T07:06:25.877Z,7.30
2019-02-28T07:09:02.126Z,7.30
2019-02-28T07:11:38.366Z,7.30
2019-02-28T07:14:13.783Z,7.30
2019-02-28T07:16:44.512Z,7.40
2019-02-28T07:19:16.311Z,7.40
2019-02-28T07:21:48.415Z,7.50
2019-02-28T07:24:20.278Z,7.50
2019-02-28T07:26:53.030Z,7.70
2019-02-28T07:29:24.971Z,7.80
2019-02-28T07:31:59.995Z,8.10
2019-02-28T07:34:30.457Z,8.50
2019-02-28T07:37:02.226Z,9.10
2019-02-28T07:39:36.531Z,9.70
2019-02-28T07:42:07.972Z,10.20
2019-02-28T07:44:40.193Z,10.50
2019-02-28T07:47:17.145Z,10.70
2019-02-28T07:49:47.257Z,10.80
2019-02-28T07:52:20.448Z,10.90
2019-02-28T07:54:55.527Z,11.30
2019-02-28T07:57:26.014Z,11.60
2019-02-28T07:59:57.516Z,12.00
2019-02-28T08:02:29.430Z,12.50
2019-02-28T08:05:02.984Z,13.20
2019-02-28T08:07:36.572Z,13.90
2019-02-28T08:10:12.768Z,14.00
2019-02-28T08:12:44.363Z,14.00
2019-02-28T08:15:22.283Z,14.10
2019-02-28T08:17:52.947Z,14.20
2019-02-28T08:20:24.614Z,14.30
2019-02-28T08:22:57.803Z,14.30
2019-02-28T08:25:29.964Z,14.20
2019-02-28T08:28:01.954Z,14.00
2019-02-28T08:30:33.743Z,13.90
2019-02-28T08:33:05.626Z,13.80
2019-02-28T08:35:37.810Z,13.80
2019-02-28T08:38:09.670Z,13.90
2019-02-28T08:40:43.036Z,14.40
2019-02-28T08:43:16.424Z,15.10
2019-02-28T08:45:48.415Z,15.50
2019-02-28T08:48:44.922Z,15.90
2019-02-28T08:51:17.166Z,15.90
2019-02-28T08:53:51.277Z,16.20
2019-02-28T08:56:22.332Z,16.20
2019-02-28T08:58:54.528Z,16.10
2019-02-28T09:01:26.577Z,16.00
2019-02-28T09:03:59.849Z,16.10
2019-02-28T09:06:32.030Z,16.40
2019-02-28T09:09:04.776Z,16.70
2019-02-28T09:11:38.519Z,16.60
2019-02-28T09:14:10.432Z,16.30
2019-02-28T09:16:44.806Z,16.40
2019-02-28T09:19:16.826Z,16.80
2019-02-28T09:21:49.377Z,17.00
2019-02-28T09:24:22.438Z,16.90
2019-02-28T09:26:54.488Z,16.70
2019-02-28T09:29:29.425Z,16.40
2019-02-28T09:32:01.666Z,16.60
2019-02-28T09:34:34.295Z,16.60
2019-02-28T09:37:06.081Z,16.60
2019-02-28T09:39:38.107Z,16.40
2019-02-28T09:42:14.853Z,16.60
2019-02-28T09:44:43.770Z,16.50
2019-02-28T09:47:15.910Z,16.40
2019-02-28T09:49:48.150Z,16.40
2019-02-28T09:52:20.047Z,16.50
2019-02-28T09:54:51.940Z,16.60
2019-02-28T09:57:23.713Z,16.60
2019-02-28T09:59:55.936Z,16.70
2019-02-28T10:02:27.926Z,16.90
2019-02-28T10:05:02.931Z,16.80
2019-02-28T10:07:34.498Z,16.70
2019-02-28T10:10:06.793Z,16.80
2019-02-28T10:12:39.451Z,16.70
2019-02-28T10:15:18.650Z,16.60
2019-02-28T10:17:50.469Z,16.80
2019-02-28T10:20:27.222Z,16.80
2019-02-28T10:22:59.616Z,16.80
2019-02-28T10:25:33.518Z,16.80
2019-02-28T10:28:05.578Z,16.90
2019-02-28T10:30:42.556Z,16.70
2019-02-28T10:33:17.396Z,16.60
2019-02-28T10:35:52.394Z,16.40
2019-02-28T10:38:29.511Z,16.50
2019-02-28T10:41:02.271Z,16.60
2019-02-28T10:43:34.532Z,16.80
2019-02-28T10:46:36.043Z,16.90
2019-02-28T10:49:07.766Z,16.70
2019-02-28T10:51:39.679Z,16.50
2019-02-28T10:54:16.629Z,16.10
2019-02-28T10:56:49.492Z,15.40
2019-02-28T10:59:24.239Z,14.70
2019-02-28T11:01:55.052Z,14.10
2019-02-28T11:04:27.613Z,13.50
2019-02-28T11:07:02.250Z,13.10
2019-02-28T11:09:33.211Z,12.90
2019-02-28T11:12:06.800Z,12.90
2019-02-28T11:14:39.897Z,12.90
2019-02-28T11:17:13.887Z,12.80
2019-02-28T11:19:48.503Z,12.80
2019-02-28T11:22:19.864Z,12.50
2019-02-28T11:24:51.778Z,12.40
2019-02-28T11:27:28.186Z,12.30
2019-02-28T11:30:00.247Z,12.10
2019-02-28T11:32:33.403Z,12.00
2019-02-28T11:35:05.441Z,12.00
2019-02-28T11:37:37.264Z,12.00
2019-02-28T11:40:09.938Z,12.10
2019-02-28T11:42:42.182Z,12.00
2019-02-28T11:45:18.610Z,12.00
2019-02-28T11:47:50.796Z,12.00
2019-02-28T11:50:22.882Z,11.90
2019-02-28T11:52:54.342Z,11.80
2019-02-28T11:55:27.176Z,11.70
2019-02-28T11:57:59.424Z,11.60
2019-02-28T12:00:32.579Z,11.50
2019-02-28T12:03:06.112Z,11.60
2019-02-28T12:05:38.342Z,11.50
2019-02-28T12:08:13.561Z,11.50
2019-02-28T12:10:45.482Z,11.50
2019-02-28T12:13:19.577Z,11.50
2019-02-28T12:15:58.783Z,11.50
2019-02-28T12:18:30.594Z,11.50
2019-02-28T12:21:04.846Z,11.40
2019-02-28T12:23:36.452Z,11.40
2019-02-28T12:26:08.278Z,11.50
2019-02-28T12:28:39.599Z,11.40
2019-02-28T12:31:15.937Z,11.30
2019-02-28T12:33:53.466Z,11.30
2019-02-28T12:36:24.042Z,11.30
2019-02-28T12:38:59.442Z,11.30
2019-02-28T12:41:30.072Z,11.40
2019-02-28T12:44:02.381Z,11.40
2019-02-28T12:46:34.172Z,11.40
2019-02-28T12:49:06.896Z,11.50
2019-02-28T12:51:39.707Z,11.50
2019-02-28T12:54:12.611Z,11.50
2019-02-28T12:56:45.149Z,11.60
2019-02-28T12:59:18.046Z,11.60
2019-02-28T13:01:49.926Z,11.50
2019-02-28T13:04:21.974Z,11.40
2019-02-28T13:06:55.582Z,11.30
2019-02-28T13:09:30.180Z,11.30
2019-02-28T13:12:08.044Z,11.20
2019-02-28T13:14:40.808Z,11.20
2019-02-28T13:17:13.651Z,11.10
2019-02-28T13:19:47.909Z,11.10
2019-02-28T13:22:23.627Z,11.10
2019-02-28T13:24:55.339Z,11.10
2019-02-28T13:27:27.331Z,11.20
2019-02-28T13:30:00.194Z,11.20
2019-02-28T13:32:33.762Z,11.30
2019-02-28T13:35:07.531Z,11.30
2019-02-28T13:37:56.245Z,11.30
2019-02-28T13:40:28.225Z,11.30
2019-02-28T13:43:02.153Z,11.10
2019-02-28T13:45:34.247Z,11.10
2019-02-28T13:48:06.429Z,11.20
2019-02-28T13:50:39.003Z,11.20
2019-02-28T13:53:18.990Z,11.20
2019-02-28T13:55:45.624Z,11.10
2019-02-28T13:58:21.581Z,11.20
2019-02-28T14:00:51.378Z,11.20
2019-02-28T14:03:24.782Z,11.10
2019-02-28T14:05:58.600Z,11.00
2019-02-28T14:08:30.014Z,10.90
2019-02-28T14:11:02.088Z,10.90
2019-02-28T14:13:34.679Z,10.80
2019-02-28T14:16:07.300Z,10.70
2019-02-28T14:18:42.592Z,10.60
2019-02-28T14:21:14.433Z,10.70
2019-02-28T14:23:47.991Z,10.60
2019-02-28T14:26:19.925Z,10.70
2019-02-28T14:28:51.754Z,10.60
2019-02-28T14:31:24.162Z,10.60
2019-02-28T14:33:56.041Z,10.60
2019-02-28T14:36:28.336Z,10.60
2019-02-28T14:39:04.700Z,10.70
2019-02-28T14:41:35.290Z,10.70
2019-02-28T14:44:08.681Z,10.70
2019-02-28T14:46:43.395Z,10.70
2019-02-28T14:49:21.865Z,10.80
2019-02-28T14:51:54.997Z,10.70
2019-02-28T14:54:27.078Z,10.70
2019-02-28T14:56:59.054Z,10.60
2019-02-28T14:59:33.881Z,10.60
2019-02-28T15:02:09.372Z,10.50
2019-02-28T15:04:42.485Z,10.50
2019-02-28T15:07:14.596Z,10.40
2019-02-28T15:09:48.441Z,10.50
2019-02-28T15:12:24.449Z,10.40
2019-02-28T15:14:54.694Z,10.40
2019-02-28T15:17:26.828Z,10.30
2019-02-28T15:20:01.093Z,10.20
2019-02-28T15:22:34.253Z,10.20
2019-02-28T15:25:06.346Z,10.10
2019-02-28T15:27:39.019Z,10.10
2019-02-28T15:30:19.018Z,10.10
2019-02-28T15:32:54.245Z,10.00
2019-02-28T15:35:24.604Z,10.00
2019-02-28T15:37:57.253Z,10.00
2019-02-28T15:40:31.504Z,9.90
2019-02-28T15:43:03.340Z,9.90
2019-02-28T15:45:36.484Z,9.90
2019-02-28T15:48:09.407Z,9.90
2019-02-28T15:50:41.509Z,9.80
2019-02-28T15:53:15.129Z,9.80
2019-02-28T15:55:50.962Z,9.70
2019-02-28T15:58:22.990Z,9.60
2019-02-28T16:00:56.647Z,9.50
2019-02-28T16:03:28.932Z,9.40
2019-02-28T16:06:01.176Z,9.30
2019-02-28T16:08:33.401Z,9.30
2019-02-28T16:11:06.272Z,9.30
2019-02-28T16:13:43.164Z,9.20
2019-02-28T16:16:16.214Z,9.20
2019-02-28T16:18:47.978Z,9.10
2019-02-28T16:21:20.412Z,9.10
2019-02-28T16:23:52.005Z,9.00
2019-02-28T16:26:23.921Z,9.00
2019-02-28T16:28:55.991Z,8.90
2019-02-28T16:31:27.659Z,8.80
2019-02-28T16:34:08.226Z,8.70
2019-02-28T16:36:50.529Z,8.70
2019-02-28T16:39:22.445Z,8.60
2019-02-28T16:41:54.281Z,8.60
2019-02-28T16:44:27.575Z,8.50
2019-02-28T16:47:03.513Z,8.40
2019-02-28T16:49:35.496Z,8.30
2019-02-28T16:52:07.533Z,8.30
2019-02-28T16:54:39.947Z,8.20
2019-02-28T16:57:13.141Z,8.20
2019-02-28T16:59:44.931Z,8.10
2019-02-28T17:02:21.981Z,8.10
2019-02-28T17:04:54.258Z,8.00
2019-02-28T17:07:27.256Z,8.00
2019-02-28T17:10:01.632Z,7.90
2019-02-28T17:12:52.985Z,7.90
2019-02-28T17:15:34.039Z,7.80
2019-02-28T17:18:13.561Z,7.80
2019-02-28T17:20:45.062Z,7.80
2019-02-28T17:23:18.829Z,7.70
2019-02-28T17:25:53.587Z,7.70
2019-02-28T17:28:51.544Z,7.60
2019-02-28T17:31:44.629Z,7.60
2019-02-28T17:34:23.755Z,7.50
2019-02-28T17:36:53.640Z,7.40
2019-02-28T17:39:27.989Z,7.40
2019-02-28T17:42:08.534Z,7.40
2019-02-28T17:45:06.206Z,7.30
2019-02-28T17:48:24.881Z,7.30
2019-02-28T17:51:31.048Z,7.30
2019-02-28T17:54:43.041Z,7.20
2019-02-28T17:58:01.340Z,7.20
2019-02-28T18:01:12.549Z,7.10
2019-02-28T18:04:08.157Z,7.10
2019-02-28T18:07:23.714Z,7.00
2019-02-28T18:10:47.739Z,6.90
2019-02-28T18:13:55.193Z,6.80
2019-02-28T18:17:02.292Z,6.70
2019-02-28T18:20:32.269Z,6.60
2019-02-28T18:24:00.110Z,6.60
2019-02-28T18:27:17.976Z,6.50
2019-02-28T18:30:25.278Z,6.40
2019-02-28T18:32:57.328Z,6.40
2019-02-28T18:35:32.510Z,6.40
2019-02-28T18:38:08.030Z,6.30
2019-02-28T18:40:45.236Z,6.30
2019-02-28T18:43:17.158Z,6.30
2019-02-28T18:45:53.559Z,6.20
2019-02-28T18:48:24.402Z,6.20
2019-02-28T18:50:56.358Z,6.20
2019-02-28T18:53:30.788Z,6.20
2019-02-28T18:56:08.782Z,6.20
2019-02-28T18:58:40.789Z,6.10
2019-02-28T19:01:14.314Z,6.10
2019-02-28T19:03:46.060Z,6.00
2019-02-28T19:06:17.856Z,6.00
2019-02-28T19:08:50.415Z,6.00
2019-02-28T19:11:25.583Z,6.00
2019-02-28T19:13:57.222Z,6.10
2019-02-28T19:16:29.928Z,6.10
2019-02-28T19:19:02.037Z,6.20
2019-02-28T19:21:33.708Z,6.30
2019-02-28T19:24:05.616Z,6.20
2019-02-28T19:26:37.536Z,6.30
2019-02-28T19:29:09.730Z,6.30
2019-02-28T19:31:43.800Z,6.20
2019-02-28T19:34:15.784Z,6.20
2019-02-28T19:36:47.694Z,6.30
2019-02-28T19:39:19.869Z,6.30
2019-02-28T19:41:53.032Z,6.30
2019-02-28T19:44:25.814Z,6.30
2019-02-28T19:46:57.707Z,6.30
2019-02-28T19:49:29.780Z,6.20
2019-02-28T19:52:03.497Z,6.20
2019-02-28T19:54:36.180Z,6.10
2019-02-28T19:57:07.989Z,6.10
2019-02-28T19:59:40.441Z,6.10
2019-02-28T20:02:13.862Z,6.10
2019-02-28T20:04:48.192Z,6.00
2019-02-28T20:07:20.266Z,6.00
2019-02-28T20:09:54.150Z,6.00
2019-02-28T20:12:27.412Z,6.00
2019-02-28T20:15:01.275Z,6.00
2019-02-28T20:17:36.660Z,6.00
2019-02-28T20:20:11.664Z,6.00
2019-02-28T20:22:46.208Z,6.00
2019-02-28T20:25:17.101Z,6.00
2019-02-28T20:27:49.468Z,5.90
2019-02-28T20:30:21.580Z,5.90
2019-02-28T20:32:53.883Z,5.80
2019-02-28T20:35:27.485Z,5.80
2019-02-28T20:38:02.507Z,5.80
2019-02-28T20:40:34.397Z,5.70
2019-02-28T20:43:07.454Z,5.70
2019-02-28T20:45:40.645Z,5.70
2019-02-28T20:48:14.312Z,5.60
2019-02-28T20:50:47.766Z,5.60
2019-02-28T20:53:19.484Z,5.50
2019-02-28T20:55:51.619Z,5.50
2019-02-28T20:58:23.808Z,5.50
2019-02-28T21:00:55.461Z,5.40
2019-02-28T21:03:27.278Z,5.30
2019-02-28T21:05:59.476Z,5.30
2019-02-28T21:08:31.340Z,5.20
2019-02-28T21:11:06.688Z,5.10
2019-02-28T21:13:40.363Z,5.10
2019-02-28T21:16:14.725Z,5.00
2019-02-28T21:18:47.558Z,4.90
2019-02-28T21:21:21.927Z,4.80
2019-02-28T21:23:58.041Z,4.70
2019-02-28T21:26:29.883Z,4.60
2019-02-28T21:29:04.448Z,4.50
2019-02-28T21:31:37.530Z,4.40
2019-02-28T21:34:11.416Z,4.40
2019-02-28T21:36:45.434Z,4.30
2019-02-28T21:39:17.641Z,4.20
2019-02-28T21:41:50.016Z,4.20
2019-02-28T21:44:21.982Z,4.10
2019-02-28T21:46:54.152Z,4.00
2019-02-28T21:49:25.994Z,4.00
2019-02-28T21:52:00.137Z,4.00
2019-02-28T21:54:32.004Z,3.90
2019-02-28T21:57:03.915Z,3.80
2019-02-28T21:59:41.508Z,3.80
2019-02-28T22:02:15.788Z,3.70
2019-02-28T22:04:50.716Z,3.70
2019-02-28T22:07:23.895Z,3.70
2019-02-28T22:09:55.662Z,3.70
2019-02-28T22:12:27.339Z,3.60
2019-02-28T22:14:59.183Z,3.60
2019-02-28T22:17:30.786Z,3.60
2019-02-28T22:20:03.754Z,3.60
2019-02-28T22:22:36.812Z,3.60
2019-02-28T22:25:09.260Z,3.50
2019-02-28T22:27:41.354Z,3.50
2019-02-28T22:30:53.184Z,3.50
2019-02-28T22:33:44.376Z,3.40
2019-02-28T22:36:23.137Z,3.40
2019-02-28T22:38:55.204Z,3.40
2019-02-28T22:41:29.729Z,3.40
2019-02-28T22:44:03.978Z,3.40
2019-02-28T22:46:35.599Z,3.30
2019-02-28T22:49:07.705Z,3.30
2019-02-28T22:51:39.484Z,3.20
2019-02-28T22:54:12.656Z,3.20
2019-02-28T22:56:44.624Z,3.10
2019-02-28T22:59:16.644Z,3.10
2019-02-28T23:01:48.560Z,3.00
2019-02-28T23:04:20.680Z,3.00
2019-02-28T23:06:54.345Z,3.00
2019-02-28T23:09:27.366Z,2.90
2019-02-28T23:11:59.202Z,2.90
2019-02-28T23:14:32.796Z,2.90
2019-02-28T23:17:04.594Z,2.90
2019-02-28T23:19:36.266Z,2.80
2019-02-28T23:22:09.039Z,2.80
2019-02-28T23:24:40.843Z,2.80
2019-02-28T23:27:15.370Z,2.70
2019-02-28T23:30:32.248Z,2.70
2019-02-28T23:33:10.961Z,2.70
2019-02-28T23:35:44.222Z,2.60
2019-02-28T23:38:16.440Z,2.60
2019-02-28T23:40:48.402Z,2.50
2019-02-28T23:43:20.278Z,2.50
2019-02-28T23:45:54.294Z,2.40
2019-02-28T23:48:25.520Z,2.40
2019-02-28T23:50:57.399Z,2.40
2019-02-28T23:53:29.136Z,2.30
2019-02-28T23:56:01.014Z,2.30
2019-02-28T23:58:45.248Z,2.30
